createdAt,value
2017-01-25T00:00:19.835Z,0
2017-01-25T00:01:28.520Z,0
2017-01-25T00:02:37.207Z,0
2017-01-25T00:03:45.893Z,0
2017-01-25T00:04:54.574Z,0
2017-01-25T00:06:03.262Z,0
2017-01-25T00:07:11.944Z,0
2017-01-25T00:08:20.631Z,0
2017-01-25T00:09:29.317Z,0
2017-01-25T00:10:38.002Z,0
2017-01-25T00:11:46.707Z,0
2017-01-25T00:12:55.413Z,0
2017-01-25T00:14:04.100Z,0
2017-01-25T00:15:12.785Z,0
2017-01-25T00:16:21.466Z,0
2017-01-25T00:17:30.154Z,0
2017-01-25T00:18:38.839Z,0
2017-01-25T00:19:47.526Z,0
2017-01-25T00:20:56.211Z,0
2017-01-25T00:22:05.297Z,0
2017-01-25T00:23:13.984Z,0
2017-01-25T00:24:22.665Z,0
2017-01-25T00:25:31.351Z,0
2017-01-25T00:26:40.040Z,0
2017-01-25T00:27:48.719Z,0
2017-01-25T00:28:57.403Z,0
2017-01-25T00:30:06.092Z,0
2017-01-25T00:31:14.774Z,0
2017-01-25T00:32:23.482Z,0
2017-01-25T00:33:32.164Z,0
2017-01-25T00:34:40.854Z,0
2017-01-25T00:35:49.539Z,0
2017-01-25T00:36:58.226Z,0
2017-01-25T00:38:06.941Z,0
2017-01-25T00:39:15.622Z,0
2017-01-25T00:40:24.307Z,0
2017-01-25T00:41:32.998Z,0
2017-01-25T00:42:41.678Z,0
2017-01-25T00:43:50.361Z,0
2017-01-25T00:44:59.044Z,0
2017-01-25T00:46:08.129Z,0
2017-01-25T00:47:16.811Z,0
2017-01-25T00:48:25.494Z,0
2017-01-25T00:49:34.182Z,0
2017-01-25T00:50:42.867Z,0
2017-01-25T00:51:51.549Z,0
2017-01-25T00:53:00.230Z,0
2017-01-25T00:54:08.918Z,0
2017-01-25T00:55:17.603Z,0
2017-01-25T00:56:26.285Z,0
2017-01-25T00:57:34.967Z,0
2017-01-25T00:58:43.653Z,0
2017-01-25T00:59:52.734Z,0
2017-01-25T01:01:01.420Z,0
2017-01-25T01:02:10.102Z,0
2017-01-25T01:03:18.791Z,0
2017-01-25T01:04:27.471Z,0
2017-01-25T01:05:36.181Z,0
2017-01-25T01:06:44.862Z,0
2017-01-25T01:07:53.544Z,0
2017-01-25T01:09:02.225Z,0
2017-01-25T01:10:10.917Z,0
2017-01-25T01:11:19.611Z,0
2017-01-25T01:12:28.295Z,0
2017-01-25T01:13:36.981Z,0
2017-01-25T01:14:45.669Z,0
2017-01-25T01:15:54.355Z,0
2017-01-25T01:17:03.082Z,0
2017-01-25T01:18:11.767Z,0
2017-01-25T01:19:20.449Z,0
2017-01-25T01:20:29.134Z,0
2017-01-25T01:21:37.844Z,0
2017-01-25T01:22:46.528Z,0
2017-01-25T01:23:55.210Z,0
2017-01-25T01:25:03.902Z,0
2017-01-25T01:26:12.615Z,0
2017-01-25T01:27:21.297Z,0
2017-01-25T01:28:29.987Z,0
2017-01-25T01:29:38.701Z,0
2017-01-25T01:30:47.385Z,0
2017-01-25T01:31:56.101Z,0
2017-01-25T01:33:05.178Z,0
2017-01-25T01:34:13.866Z,0
2017-01-25T01:35:22.547Z,0
2017-01-25T01:36:31.233Z,0
2017-01-25T01:37:39.914Z,0
2017-01-25T01:38:48.598Z,0
2017-01-25T01:39:57.313Z,0
2017-01-25T01:41:06.002Z,0
2017-01-25T01:42:14.690Z,0
2017-01-25T01:43:23.371Z,0
2017-01-25T01:44:32.054Z,0
2017-01-25T01:45:40.771Z,0
2017-01-25T01:46:49.456Z,0
2017-01-25T01:47:58.144Z,0
2017-01-25T01:49:06.855Z,0
2017-01-25T01:50:15.551Z,0
2017-01-25T01:51:24.230Z,0
2017-01-25T01:52:32.916Z,0
2017-01-25T01:53:41.601Z,0
2017-01-25T01:54:50.284Z,0
2017-01-25T01:55:59.422Z,0
2017-01-25T01:57:08.113Z,0
2017-01-25T01:58:16.798Z,0
2017-01-25T01:59:25.485Z,0
2017-01-25T02:00:34.159Z,0
2017-01-25T02:01:42.844Z,0
2017-01-25T02:02:51.924Z,0
2017-01-25T02:04:00.608Z,0
2017-01-25T02:05:09.691Z,0
2017-01-25T02:06:18.373Z,0
2017-01-25T02:07:27.063Z,0
2017-01-25T02:08:35.745Z,0
2017-01-25T02:09:44.425Z,0
2017-01-25T02:10:53.106Z,0
2017-01-25T02:12:01.792Z,0
2017-01-25T02:13:10.471Z,0
2017-01-25T02:14:19.152Z,0
2017-01-25T02:15:27.835Z,0
2017-01-25T02:16:36.518Z,0
2017-01-25T02:17:45.228Z,0
2017-01-25T02:18:53.923Z,0
2017-01-25T02:20:02.606Z,0
2017-01-25T02:21:11.327Z,0
2017-01-25T02:22:20.012Z,0
2017-01-25T02:23:28.696Z,0
2017-01-25T02:24:37.412Z,0
2017-01-25T02:25:46.092Z,0
2017-01-25T02:26:54.783Z,0
2017-01-25T02:28:03.467Z,0
2017-01-25T02:29:12.150Z,0
2017-01-25T02:30:20.839Z,0
2017-01-25T02:31:29.527Z,0
2017-01-25T02:32:38.209Z,0
2017-01-25T02:33:46.895Z,0
2017-01-25T02:34:55.580Z,0
2017-01-25T02:36:04.266Z,0
2017-01-25T02:37:12.944Z,0
2017-01-25T02:38:21.634Z,0
2017-01-25T02:39:30.321Z,0
2017-01-25T02:40:39.005Z,0
2017-01-25T02:41:47.698Z,0
2017-01-25T02:42:56.377Z,0
2017-01-25T02:44:05.064Z,0
2017-01-25T02:45:13.746Z,0
2017-01-25T02:46:22.432Z,0
2017-01-25T02:47:31.120Z,0
2017-01-25T02:48:39.812Z,0
2017-01-25T02:49:48.498Z,0
2017-01-25T02:50:57.181Z,0
2017-01-25T02:52:05.865Z,0
2017-01-25T02:53:14.546Z,0
2017-01-25T02:54:23.233Z,0
2017-01-25T02:55:31.923Z,0
2017-01-25T02:56:40.602Z,0
2017-01-25T02:57:49.287Z,0
2017-01-25T02:58:57.969Z,0
2017-01-25T03:00:06.656Z,0
2017-01-25T03:01:15.341Z,0
2017-01-25T03:02:24.026Z,0
2017-01-25T03:03:32.709Z,0
2017-01-25T03:04:41.393Z,0
2017-01-25T03:05:50.082Z,0
2017-01-25T03:06:58.764Z,0
2017-01-25T03:08:07.451Z,0
2017-01-25T03:09:16.134Z,0
2017-01-25T03:10:24.816Z,0
2017-01-25T03:11:33.500Z,0
2017-01-25T03:12:42.189Z,0
2017-01-25T03:13:50.876Z,0
2017-01-25T03:14:59.559Z,0
2017-01-25T03:16:08.246Z,0
2017-01-25T03:17:16.940Z,0
2017-01-25T03:18:25.624Z,0
2017-01-25T03:19:34.308Z,0
2017-01-25T03:20:43.002Z,0
2017-01-25T03:21:51.684Z,0
2017-01-25T03:23:00.399Z,0
2017-01-25T03:24:09.082Z,0
2017-01-25T03:25:17.766Z,0
2017-01-25T03:26:26.478Z,0
2017-01-25T03:27:35.588Z,0
2017-01-25T03:28:44.275Z,0
2017-01-25T03:29:52.958Z,0
2017-01-25T03:31:01.655Z,0
2017-01-25T03:32:10.340Z,0
2017-01-25T03:33:19.028Z,0
2017-01-25T03:34:27.712Z,0
2017-01-25T03:35:36.393Z,0
2017-01-25T03:36:45.081Z,0
2017-01-25T03:37:53.760Z,0
2017-01-25T03:39:02.445Z,0
2017-01-25T03:40:11.130Z,0
2017-01-25T03:41:19.812Z,0
2017-01-25T03:42:28.498Z,0
2017-01-25T03:43:37.181Z,0
2017-01-25T03:44:45.863Z,0
2017-01-25T03:45:54.545Z,0
2017-01-25T03:47:03.256Z,0
2017-01-25T03:48:11.941Z,0
2017-01-25T03:49:20.627Z,0
2017-01-25T03:50:29.310Z,0
2017-01-25T03:51:37.995Z,0
2017-01-25T03:52:46.673Z,0
2017-01-25T03:53:55.352Z,0
2017-01-25T03:55:04.073Z,0
2017-01-25T03:56:12.759Z,0
2017-01-25T03:57:21.452Z,0
2017-01-25T03:58:30.136Z,0
2017-01-25T03:59:38.818Z,0
2017-01-25T04:00:47.507Z,0
2017-01-25T04:01:56.190Z,0
2017-01-25T04:03:04.878Z,0
2017-01-25T04:04:13.595Z,0
2017-01-25T04:05:22.288Z,0
2017-01-25T04:06:31.369Z,0
2017-01-25T04:07:40.449Z,0
2017-01-25T04:08:49.135Z,0
2017-01-25T04:09:58.218Z,0
2017-01-25T04:11:06.937Z,0
2017-01-25T04:12:15.620Z,0
2017-01-25T04:13:24.300Z,0
2017-01-25T04:14:32.980Z,0
2017-01-25T04:15:41.666Z,0
2017-01-25T04:16:50.348Z,0
2017-01-25T04:17:59.033Z,0
2017-01-25T04:19:08.112Z,0
2017-01-25T04:20:16.798Z,0
2017-01-25T04:21:25.477Z,0
2017-01-25T04:22:34.165Z,0
2017-01-25T04:23:42.850Z,0
2017-01-25T04:24:51.530Z,0
2017-01-25T04:26:00.209Z,0
2017-01-25T04:27:08.900Z,0
2017-01-25T04:28:17.583Z,0
2017-01-25T04:29:26.265Z,0
2017-01-25T04:30:34.951Z,0
2017-01-25T04:31:43.636Z,0
2017-01-25T04:32:52.314Z,0
2017-01-25T04:34:00.997Z,0
2017-01-25T04:35:09.730Z,0
2017-01-25T04:36:18.412Z,0
2017-01-25T04:37:27.091Z,0
2017-01-25T04:38:35.775Z,0
2017-01-25T04:39:44.460Z,0
2017-01-25T04:40:53.140Z,0
2017-01-25T04:42:01.832Z,0
2017-01-25T04:43:10.519Z,0
2017-01-25T04:44:19.204Z,0
2017-01-25T04:45:27.886Z,0
2017-01-25T04:46:36.571Z,0
2017-01-25T04:47:45.250Z,0
2017-01-25T04:48:53.935Z,0
2017-01-25T04:50:02.668Z,0
2017-01-25T04:51:11.382Z,0
2017-01-25T04:52:20.089Z,0
2017-01-25T04:53:28.768Z,0
2017-01-25T04:54:37.451Z,0
2017-01-25T04:55:46.143Z,0
2017-01-25T04:56:54.832Z,0
2017-01-25T04:58:03.513Z,0
2017-01-25T04:59:12.193Z,0
2017-01-25T05:00:20.885Z,0
2017-01-25T05:01:29.568Z,0
2017-01-25T05:02:38.249Z,0
2017-01-25T05:03:46.931Z,0
2017-01-25T05:04:55.613Z,0
2017-01-25T05:06:04.693Z,0
2017-01-25T05:07:13.383Z,0
2017-01-25T05:08:22.168Z,0
2017-01-25T05:09:30.857Z,0
2017-01-25T05:10:39.540Z,0
2017-01-25T05:11:48.228Z,0
2017-01-25T05:12:56.912Z,0
2017-01-25T05:14:05.596Z,0
2017-01-25T05:15:14.678Z,0
2017-01-25T05:16:23.753Z,0
2017-01-25T05:17:32.440Z,0
2017-01-25T05:18:41.124Z,0
2017-01-25T05:19:49.815Z,0
2017-01-25T05:20:58.505Z,0
2017-01-25T05:22:07.202Z,0
2017-01-25T05:23:15.892Z,0
2017-01-25T05:24:24.588Z,0
2017-01-25T05:25:33.270Z,0
2017-01-25T05:26:41.955Z,0
2017-01-25T05:27:50.642Z,0
2017-01-25T05:28:59.326Z,0
2017-01-25T05:30:08.018Z,0
2017-01-25T05:31:16.700Z,0
2017-01-25T05:32:25.384Z,0
2017-01-25T05:33:34.071Z,0
2017-01-25T05:34:42.752Z,0
2017-01-25T05:35:51.439Z,0
2017-01-25T05:37:00.124Z,0
2017-01-25T05:38:09.204Z,0
2017-01-25T05:39:17.883Z,0
2017-01-25T05:40:26.574Z,0
2017-01-25T05:41:35.260Z,0
2017-01-25T05:42:43.938Z,0
2017-01-25T05:43:52.620Z,0
2017-01-25T05:45:01.304Z,0
2017-01-25T05:46:09.993Z,0
2017-01-25T05:47:18.674Z,0
2017-01-25T05:48:27.351Z,0
2017-01-25T05:49:36.036Z,0
2017-01-25T05:50:44.722Z,0
2017-01-25T05:51:53.404Z,0
2017-01-25T05:53:02.088Z,0
2017-01-25T05:54:10.768Z,0
2017-01-25T05:55:19.454Z,0
2017-01-25T05:56:28.143Z,0
2017-01-25T05:57:36.827Z,0
2017-01-25T05:58:45.508Z,0
2017-01-25T05:59:54.189Z,0
2017-01-25T06:01:02.872Z,0
2017-01-25T06:02:11.560Z,0
2017-01-25T06:03:20.243Z,0
2017-01-25T06:04:28.924Z,0
2017-01-25T06:05:37.607Z,0
2017-01-25T06:06:46.289Z,0
2017-01-25T06:07:54.966Z,0
2017-01-25T06:09:04.045Z,0
2017-01-25T06:10:12.731Z,0
2017-01-25T06:11:21.435Z,0
2017-01-25T06:12:30.114Z,0
2017-01-25T06:13:38.798Z,0
2017-01-25T06:14:47.476Z,0
2017-01-25T06:15:56.162Z,0
2017-01-25T06:17:04.842Z,0
2017-01-25T06:18:13.530Z,0
2017-01-25T06:19:22.211Z,0
2017-01-25T06:20:30.896Z,0
2017-01-25T06:21:39.582Z,0
2017-01-25T06:22:48.264Z,0
2017-01-25T06:23:56.948Z,0
2017-01-25T06:25:05.639Z,0
2017-01-25T06:26:14.322Z,0
2017-01-25T06:27:23.027Z,0
2017-01-25T06:28:31.712Z,0
2017-01-25T06:29:40.396Z,0
2017-01-25T06:30:49.080Z,0
2017-01-25T06:31:57.766Z,0
2017-01-25T06:33:06.482Z,0
2017-01-25T06:34:15.163Z,0
2017-01-25T06:35:23.873Z,0
2017-01-25T06:36:32.558Z,0
2017-01-25T06:37:41.246Z,0
2017-01-25T06:38:49.931Z,0
2017-01-25T06:39:58.613Z,0
2017-01-25T06:41:07.296Z,0
2017-01-25T06:42:15.980Z,0
2017-01-25T06:43:24.661Z,0
2017-01-25T06:44:33.346Z,0
2017-01-25T06:45:42.032Z,0
2017-01-25T06:46:50.714Z,0
2017-01-25T06:47:59.395Z,0
2017-01-25T06:49:08.107Z,0
2017-01-25T06:50:16.796Z,0
2017-01-25T06:51:25.736Z,0
2017-01-25T06:52:34.419Z,0
2017-01-25T06:53:43.105Z,0
2017-01-25T06:54:51.785Z,0
2017-01-25T06:56:00.489Z,0
2017-01-25T06:57:09.179Z,0
2017-01-25T06:58:17.870Z,0
2017-01-25T06:59:26.550Z,0
2017-01-25T07:00:35.229Z,0
2017-01-25T07:01:43.920Z,0
2017-01-25T07:02:52.604Z,0
2017-01-25T07:04:01.284Z,0
2017-01-25T07:05:09.966Z,0
2017-01-25T07:06:18.649Z,0
2017-01-25T07:07:27.334Z,0
2017-01-25T07:10:03.726Z,0
2017-01-25T07:11:12.421Z,4
2017-01-25T07:12:21.105Z,4
2017-01-25T07:13:29.792Z,4
2017-01-25T07:14:38.627Z,0
2017-01-25T07:15:47.311Z,4
2017-01-25T07:16:56.020Z,4
2017-01-25T07:18:04.705Z,4
2017-01-25T07:19:13.384Z,4
2017-01-25T07:20:22.218Z,4
2017-01-25T07:21:30.906Z,8
2017-01-25T07:22:39.593Z,8
2017-01-25T07:23:48.272Z,12
2017-01-25T07:24:56.955Z,12
2017-01-25T07:26:05.895Z,12
2017-01-25T07:27:14.577Z,12
2017-01-25T07:28:23.291Z,16
2017-01-25T07:29:32.376Z,20
2017-01-25T07:30:41.060Z,24
2017-01-25T07:31:49.900Z,24
2017-01-25T07:32:58.588Z,28
2017-01-25T07:34:07.279Z,32
2017-01-25T07:35:15.975Z,36
2017-01-25T07:36:25.053Z,36
2017-01-25T07:37:34.086Z,40
2017-01-25T07:38:42.768Z,44
2017-01-25T07:39:51.457Z,48
2017-01-25T07:41:00.142Z,52
2017-01-25T07:42:08.826Z,56
2017-01-25T07:43:17.636Z,60
2017-01-25T07:44:26.344Z,68
2017-01-25T07:45:35.037Z,68
2017-01-25T07:46:43.719Z,76
2017-01-25T07:47:52.406Z,80
2017-01-25T07:49:01.090Z,88
2017-01-25T07:50:09.803Z,92
2017-01-25T07:51:18.519Z,100
2017-01-25T07:52:27.206Z,104
2017-01-25T07:53:35.889Z,112
2017-01-25T07:54:47.119Z,120
2017-01-25T07:55:55.803Z,124
2017-01-25T07:57:04.488Z,136
2017-01-25T07:58:13.175Z,148
2017-01-25T07:59:21.859Z,156
2017-01-25T08:00:30.550Z,172
2017-01-25T08:01:39.236Z,184
2017-01-25T08:02:47.918Z,200
2017-01-25T08:03:56.613Z,216
2017-01-25T08:05:05.297Z,236
2017-01-25T08:06:13.982Z,256
2017-01-25T08:07:22.662Z,276
2017-01-25T08:08:31.348Z,292
2017-01-25T08:09:40.035Z,308
2017-01-25T08:10:48.718Z,328
2017-01-25T08:11:57.407Z,348
2017-01-25T08:13:06.093Z,360
2017-01-25T08:14:14.778Z,376
2017-01-25T08:15:23.462Z,392
2017-01-25T08:16:32.144Z,412
2017-01-25T08:17:40.850Z,428
2017-01-25T08:18:49.540Z,448
2017-01-25T08:19:58.225Z,464
2017-01-25T08:21:06.914Z,484
2017-01-25T08:22:15.603Z,504
2017-01-25T08:23:24.287Z,516
2017-01-25T08:24:32.966Z,520
2017-01-25T08:25:41.651Z,532
2017-01-25T08:26:50.337Z,548
2017-01-25T08:27:59.022Z,552
2017-01-25T08:29:07.709Z,560
2017-01-25T08:30:16.387Z,572
2017-01-25T08:31:25.072Z,604
2017-01-25T08:32:33.756Z,636
2017-01-25T08:33:42.442Z,652
2017-01-25T08:34:51.125Z,668
2017-01-25T08:35:59.839Z,688
2017-01-25T08:37:08.525Z,704
2017-01-25T08:38:17.210Z,712
2017-01-25T08:39:25.902Z,716
2017-01-25T08:40:34.582Z,740
2017-01-25T08:41:43.265Z,776
2017-01-25T08:42:51.949Z,804
2017-01-25T08:44:00.637Z,808
2017-01-25T08:45:09.322Z,816
2017-01-25T08:46:18.023Z,824
2017-01-25T08:47:26.708Z,840
2017-01-25T08:48:35.402Z,884
2017-01-25T08:49:44.096Z,916
2017-01-25T08:50:52.783Z,932
2017-01-25T08:52:01.467Z,944
2017-01-25T08:53:10.163Z,948
2017-01-25T08:54:18.846Z,944
2017-01-25T08:55:27.529Z,960
2017-01-25T08:56:36.213Z,964
2017-01-25T08:57:44.898Z,984
2017-01-25T08:58:53.587Z,1004
2017-01-25T09:00:02.270Z,1028
2017-01-25T09:01:10.956Z,1024
2017-01-25T09:02:19.637Z,1024
2017-01-25T09:03:28.324Z,1032
2017-01-25T09:04:37.013Z,1040
2017-01-25T09:05:45.701Z,1060
2017-01-25T09:06:54.384Z,1080
2017-01-25T09:08:03.072Z,1108
2017-01-25T09:09:11.758Z,1132
2017-01-25T09:10:20.478Z,1168
2017-01-25T09:11:29.208Z,1208
2017-01-25T09:12:37.919Z,1224
2017-01-25T09:13:46.606Z,1256
2017-01-25T09:14:55.288Z,1276
2017-01-25T09:16:03.986Z,1308
2017-01-25T09:17:12.670Z,1340
2017-01-25T09:18:21.363Z,1356
2017-01-25T09:19:30.052Z,1356
2017-01-25T09:20:39.134Z,1372
2017-01-25T09:21:47.818Z,1404
2017-01-25T09:22:56.497Z,1444
2017-01-25T09:24:05.189Z,1464
2017-01-25T09:25:13.880Z,1532
2017-01-25T09:26:22.562Z,1600
2017-01-25T09:27:31.248Z,1652
2017-01-25T09:28:39.930Z,1664
2017-01-25T09:29:48.617Z,1664
2017-01-25T09:30:57.300Z,1688
2017-01-25T09:32:05.988Z,1732
2017-01-25T09:33:14.684Z,1776
2017-01-25T09:34:23.369Z,1820
2017-01-25T09:35:32.058Z,1856
2017-01-25T09:36:40.742Z,1896
2017-01-25T09:37:49.434Z,1932
2017-01-25T09:38:58.118Z,1960
2017-01-25T09:40:06.805Z,2004
2017-01-25T09:41:15.493Z,2000
2017-01-25T09:42:24.216Z,1996
2017-01-25T09:43:32.898Z,1980
2017-01-25T09:44:41.592Z,1960
2017-01-25T09:45:50.280Z,2012
2017-01-25T09:46:58.963Z,2048
2017-01-25T09:48:07.650Z,2144
2017-01-25T09:49:16.340Z,2160
2017-01-25T09:50:25.025Z,2152
2017-01-25T09:51:33.708Z,2104
2017-01-25T09:52:42.398Z,2128
2017-01-25T09:53:51.084Z,2196
2017-01-25T09:54:59.769Z,2248
2017-01-25T09:56:08.456Z,2296
2017-01-25T09:57:17.168Z,2336
2017-01-25T09:58:25.853Z,2380
2017-01-25T09:59:34.532Z,2420
2017-01-25T10:00:43.220Z,2380
2017-01-25T10:01:51.900Z,2348
2017-01-25T10:03:00.584Z,2324
2017-01-25T10:04:09.269Z,2268
2017-01-25T10:05:17.963Z,2232
2017-01-25T10:06:26.676Z,2228
2017-01-25T10:07:35.365Z,2288
2017-01-25T10:08:44.447Z,2296
2017-01-25T10:09:53.131Z,2340
2017-01-25T10:11:01.815Z,2328
2017-01-25T10:12:10.506Z,2288
2017-01-25T10:13:19.191Z,2280
2017-01-25T10:14:27.876Z,2284
2017-01-25T10:15:36.577Z,2256
2017-01-25T10:16:45.263Z,2200
2017-01-25T10:17:53.950Z,2140
2017-01-25T10:19:02.635Z,2116
2017-01-25T10:20:11.367Z,2092
2017-01-25T10:21:20.049Z,2064
2017-01-25T10:22:28.733Z,2080
2017-01-25T10:23:37.424Z,2080
2017-01-25T10:24:46.112Z,2100
2017-01-25T10:25:54.803Z,2044
2017-01-25T10:27:03.497Z,2048
2017-01-25T10:28:12.189Z,2000
2017-01-25T10:29:21.121Z,2016
2017-01-25T10:30:29.803Z,1968
2017-01-25T10:31:38.487Z,2004
2017-01-25T10:32:47.169Z,1968
2017-01-25T10:33:55.861Z,1992
2017-01-25T10:35:04.795Z,2044
2017-01-25T10:36:13.477Z,2028
2017-01-25T10:37:22.162Z,2056
2017-01-25T10:38:30.844Z,2048
2017-01-25T10:39:39.533Z,2040
2017-01-25T10:40:48.220Z,2044
2017-01-25T10:41:56.902Z,2060
2017-01-25T10:43:05.588Z,2076
2017-01-25T10:44:14.271Z,2048
2017-01-25T10:45:22.955Z,2052
2017-01-25T10:46:31.639Z,2096
2017-01-25T10:47:40.331Z,2156
2017-01-25T10:48:49.026Z,2204
2017-01-25T10:49:57.706Z,2236
2017-01-25T10:51:06.789Z,2240
2017-01-25T10:52:15.478Z,2300
2017-01-25T10:53:24.165Z,2324
2017-01-25T10:54:32.853Z,2328
2017-01-25T10:55:41.535Z,2352
2017-01-25T10:56:50.220Z,2376
2017-01-25T10:57:58.914Z,2408
2017-01-25T10:59:07.604Z,2416
2017-01-25T11:00:16.332Z,2384
2017-01-25T11:01:25.016Z,2392
2017-01-25T11:02:33.703Z,2392
2017-01-25T11:03:42.387Z,2392
2017-01-25T11:04:51.074Z,2384
2017-01-25T11:05:59.763Z,2364
2017-01-25T11:07:08.452Z,2368
2017-01-25T11:08:17.133Z,2364
2017-01-25T11:09:25.817Z,2392
2017-01-25T11:10:34.518Z,2408
2017-01-25T11:11:43.216Z,2392
2017-01-25T11:12:51.901Z,2448
2017-01-25T11:14:00.590Z,2404
2017-01-25T11:15:09.283Z,2368
2017-01-25T11:16:17.977Z,2308
2017-01-25T11:17:26.663Z,2288
2017-01-25T11:18:35.345Z,2264
2017-01-25T11:19:44.031Z,2256
2017-01-25T11:20:52.719Z,2276
2017-01-25T11:22:01.402Z,2272
2017-01-25T11:23:10.086Z,2280
2017-01-25T11:24:18.778Z,2292
2017-01-25T11:25:27.463Z,2292
2017-01-25T11:26:36.152Z,2292
2017-01-25T11:27:44.834Z,2308
2017-01-25T11:28:53.519Z,2300
2017-01-25T11:30:02.211Z,2292
2017-01-25T11:31:10.929Z,2316
2017-01-25T11:32:19.614Z,2320
2017-01-25T11:33:28.296Z,2344
2017-01-25T11:34:36.982Z,2372
2017-01-25T11:35:45.664Z,2408
2017-01-25T11:36:54.347Z,2416
2017-01-25T11:38:03.059Z,2384
2017-01-25T11:39:11.754Z,2356
2017-01-25T11:40:20.437Z,2288
2017-01-25T11:41:29.118Z,2196
2017-01-25T11:42:37.797Z,2212
2017-01-25T11:43:46.485Z,2220
2017-01-25T11:44:55.174Z,2208
2017-01-25T11:46:03.858Z,2220
2017-01-25T11:47:12.541Z,2232
2017-01-25T11:48:21.225Z,2220
2017-01-25T11:49:29.910Z,2160
2017-01-25T11:50:38.595Z,2180
2017-01-25T11:51:47.277Z,2216
2017-01-25T11:52:55.965Z,2224
2017-01-25T11:54:04.661Z,2236
2017-01-25T11:55:13.346Z,2244
2017-01-25T11:56:22.031Z,2244
2017-01-25T11:57:30.712Z,2236
2017-01-25T11:58:39.399Z,2256
2017-01-25T11:59:48.085Z,2248
2017-01-25T12:01:06.542Z,2264
2017-01-25T12:02:15.225Z,2272
2017-01-25T12:03:23.909Z,2288
2017-01-25T12:04:32.595Z,2296
2017-01-25T12:05:41.295Z,2312
2017-01-25T12:06:50.330Z,2328
2017-01-25T12:07:59.022Z,2312
2017-01-25T12:09:07.713Z,2284
2017-01-25T12:10:16.400Z,2236
2017-01-25T12:11:25.086Z,2180
2017-01-25T12:12:33.981Z,2124
2017-01-25T12:13:42.698Z,2068
2017-01-25T12:14:51.381Z,2096
2017-01-25T12:16:00.064Z,2144
2017-01-25T12:17:08.755Z,2208
2017-01-25T12:18:17.590Z,2216
2017-01-25T12:19:26.683Z,2252
2017-01-25T12:20:35.370Z,2256
2017-01-25T12:21:44.059Z,2240
2017-01-25T12:22:52.745Z,2148
2017-01-25T12:24:01.583Z,2124
2017-01-25T12:25:10.267Z,2196
2017-01-25T12:26:18.947Z,2452
2017-01-25T12:27:27.629Z,2804
2017-01-25T12:28:36.322Z,2848
2017-01-25T12:29:59.263Z,2716
2017-01-25T12:31:07.956Z,2452
2017-01-25T12:32:16.639Z,2344
2017-01-25T12:33:25.319Z,2512
2017-01-25T12:34:34.004Z,2528
2017-01-25T12:35:42.838Z,2584
2017-01-25T12:36:51.528Z,2476
2017-01-25T12:38:00.216Z,2396
2017-01-25T12:39:08.912Z,2396
2017-01-25T12:40:17.600Z,2348
2017-01-25T12:41:26.381Z,2344
2017-01-25T12:42:35.073Z,2376
2017-01-25T12:43:43.767Z,2356
2017-01-25T12:44:52.457Z,2336
2017-01-25T12:46:01.143Z,2336
2017-01-25T12:47:10.017Z,2256
2017-01-25T12:48:18.714Z,2180
2017-01-25T12:49:27.395Z,2156
2017-01-25T12:50:36.077Z,2144
2017-01-25T12:51:44.769Z,2164
2017-01-25T12:52:53.750Z,2312
2017-01-25T12:54:02.474Z,2408
2017-01-25T12:55:11.164Z,2368
2017-01-25T12:56:19.848Z,2268
2017-01-25T12:57:28.531Z,2180
2017-01-25T12:58:37.330Z,2136
2017-01-25T12:59:46.012Z,2124
2017-01-25T13:00:54.692Z,2132
2017-01-25T13:02:03.376Z,2140
2017-01-25T13:03:12.059Z,2076
2017-01-25T13:04:20.900Z,2040
2017-01-25T13:05:29.585Z,2076
2017-01-25T13:06:38.271Z,2032
2017-01-25T13:07:46.962Z,1972
2017-01-25T13:08:55.645Z,1980
2017-01-25T13:10:04.436Z,2024
2017-01-25T13:11:13.121Z,2012
2017-01-25T13:12:21.808Z,2096
2017-01-25T13:13:30.492Z,2176
2017-01-25T13:14:39.181Z,2344
2017-01-25T13:15:47.977Z,2388
2017-01-25T13:16:56.665Z,2380
2017-01-25T13:18:05.353Z,2332
2017-01-25T13:19:14.035Z,2312
2017-01-25T13:20:22.729Z,2320
2017-01-25T13:21:31.530Z,2284
2017-01-25T13:22:40.211Z,2232
2017-01-25T13:23:48.895Z,2244
2017-01-25T13:24:57.580Z,2248
2017-01-25T13:26:06.271Z,2184
2017-01-25T13:27:15.262Z,2176
2017-01-25T13:28:23.946Z,2144
2017-01-25T13:29:32.634Z,2068
2017-01-25T13:30:41.316Z,2024
2017-01-25T13:31:50.002Z,2036
2017-01-25T13:32:59.047Z,1944
2017-01-25T13:34:07.733Z,1840
2017-01-25T13:35:16.423Z,1780
2017-01-25T13:36:25.113Z,1704
2017-01-25T13:37:33.804Z,1612
2017-01-25T13:38:42.593Z,1516
2017-01-25T13:39:51.285Z,1516
2017-01-25T13:40:59.984Z,1512
2017-01-25T13:42:08.670Z,1416
2017-01-25T13:43:17.360Z,1396
2017-01-25T13:44:26.193Z,1400
2017-01-25T13:45:34.889Z,1368
2017-01-25T13:46:43.590Z,1348
2017-01-25T13:47:52.278Z,1296
2017-01-25T13:49:00.993Z,1292
2017-01-25T13:50:09.678Z,1300
2017-01-25T13:51:18.362Z,1332
2017-01-25T13:52:27.047Z,1360
2017-01-25T13:53:35.733Z,1364
2017-01-25T13:54:44.416Z,1404
2017-01-25T13:55:53.109Z,1456
2017-01-25T13:57:01.810Z,1388
2017-01-25T13:58:10.894Z,1344
2017-01-25T13:59:19.582Z,1360
2017-01-25T14:00:28.264Z,1388
2017-01-25T14:01:36.955Z,1440
2017-01-25T14:02:45.644Z,1504
2017-01-25T14:03:54.329Z,1560
2017-01-25T14:05:03.019Z,1640
2017-01-25T14:06:11.711Z,1632
2017-01-25T14:07:20.644Z,1576
2017-01-25T14:08:29.336Z,1448
2017-01-25T14:09:38.017Z,1388
2017-01-25T14:10:46.703Z,1300
2017-01-25T14:11:55.786Z,1232
2017-01-25T14:13:04.829Z,1160
2017-01-25T14:14:13.511Z,1052
2017-01-25T14:15:22.200Z,1012
2017-01-25T14:16:30.892Z,968
2017-01-25T14:17:39.591Z,928
2017-01-25T14:18:48.529Z,936
2017-01-25T14:19:57.217Z,932
2017-01-25T14:21:05.905Z,908
2017-01-25T14:22:14.599Z,864
2017-01-25T14:23:23.695Z,816
2017-01-25T14:24:32.733Z,772
2017-01-25T14:25:41.818Z,784
2017-01-25T14:26:50.510Z,732
2017-01-25T14:27:59.200Z,700
2017-01-25T14:29:07.902Z,664
2017-01-25T14:30:16.835Z,656
2017-01-25T14:31:25.918Z,660
2017-01-25T14:32:34.605Z,664
2017-01-25T14:33:43.293Z,660
2017-01-25T14:34:51.990Z,648
2017-01-25T14:36:01.027Z,628
2017-01-25T14:37:09.717Z,604
2017-01-25T14:38:18.401Z,584
2017-01-25T14:39:27.086Z,564
2017-01-25T14:40:35.772Z,528
2017-01-25T14:41:44.710Z,480
2017-01-25T14:42:53.387Z,464
2017-01-25T14:44:02.070Z,452
2017-01-25T14:45:10.758Z,440
2017-01-25T14:46:19.444Z,436
2017-01-25T14:47:28.127Z,412
2017-01-25T14:48:36.815Z,404
2017-01-25T14:49:45.499Z,388
2017-01-25T14:50:54.185Z,380
2017-01-25T14:52:02.871Z,376
2017-01-25T14:53:11.555Z,368
2017-01-25T14:54:20.243Z,364
2017-01-25T14:55:28.932Z,348
2017-01-25T14:56:37.615Z,332
2017-01-25T14:57:46.308Z,320
2017-01-25T15:00:22.979Z,284
2017-01-25T15:01:31.663Z,268
2017-01-25T15:02:40.366Z,248
2017-01-25T15:03:49.049Z,232
2017-01-25T15:04:57.734Z,220
2017-01-25T15:06:06.816Z,216
2017-01-25T15:07:15.499Z,216
2017-01-25T15:08:24.183Z,212
2017-01-25T15:09:32.866Z,196
2017-01-25T15:10:41.562Z,192
2017-01-25T15:11:50.243Z,180
2017-01-25T15:12:58.931Z,168
2017-01-25T15:14:07.619Z,160
2017-01-25T15:15:16.307Z,156
2017-01-25T15:16:24.999Z,140
2017-01-25T15:17:33.684Z,136
2017-01-25T15:18:42.367Z,124
2017-01-25T15:19:51.097Z,116
2017-01-25T15:20:59.809Z,112
2017-01-25T15:22:08.496Z,100
2017-01-25T15:23:17.182Z,92
2017-01-25T15:24:25.872Z,80
2017-01-25T15:25:34.561Z,72
2017-01-25T15:26:43.272Z,60
2017-01-25T15:27:51.958Z,56
2017-01-25T15:29:00.666Z,48
2017-01-25T15:30:09.354Z,44
2017-01-25T15:31:18.037Z,36
2017-01-25T15:32:26.722Z,36
2017-01-25T15:33:35.412Z,32
2017-01-25T15:34:44.093Z,28
2017-01-25T15:35:52.783Z,20
2017-01-25T15:37:01.469Z,20
2017-01-25T15:38:10.191Z,16
2017-01-25T15:39:18.874Z,12
2017-01-25T15:40:27.582Z,16
2017-01-25T15:41:36.268Z,12
2017-01-25T15:42:44.950Z,12
2017-01-25T15:43:53.642Z,8
2017-01-25T15:45:02.326Z,4
2017-01-25T15:46:11.021Z,4
2017-01-25T15:47:19.711Z,8
2017-01-25T15:48:28.403Z,4
2017-01-25T15:49:37.111Z,4
2017-01-25T15:50:45.795Z,0
2017-01-25T15:51:54.483Z,4
2017-01-25T15:53:03.166Z,4
2017-01-25T15:54:11.859Z,4
2017-01-25T15:55:20.544Z,0
2017-01-25T15:56:29.226Z,0
2017-01-25T15:57:37.906Z,4
2017-01-25T15:58:46.588Z,0
2017-01-25T15:59:55.271Z,0
2017-01-25T16:01:03.960Z,0
2017-01-25T16:03:43.159Z,0
2017-01-25T16:04:51.846Z,0
2017-01-25T16:06:00.528Z,0
2017-01-25T16:07:09.208Z,0
2017-01-25T16:08:18.244Z,0
2017-01-25T16:09:26.929Z,0
2017-01-25T16:10:35.617Z,0
2017-01-25T16:11:44.308Z,0
2017-01-25T16:12:53.017Z,0
2017-01-25T16:14:01.807Z,0